Time;durP1;ratioP1;P1;durP2;ratioP2;P2;SDS_P1;SDS_P2;PMS_P1;PMS_P2;Temp;Humidity;BMP_temperature;BMP_pressure;BME280_temperature;BME280_humidity;BME280_pressure;Samples;Min_cycle;Max_cycle;Signal;HPM_P1;HPM_P2
2023/08/23 00:02:23;;;;;;;6.40;3.00;;;;;;;;;;5090933;28;20773;-68
2023/08/23 00:04:52;;;;;;;3.70;3.03;;;;;;;;;;5091464;28;20413;-67
2023/08/23 00:07:20;;;;;;;4.67;3.10;;;;;;;;;;5091640;28;20824;-67
2023/08/23 00:09:46;;;;;;;3.43;3.00;;;;;;;;;;5090969;28;20448;-67
2023/08/23 00:12:12;;;;;;;3.33;2.70;;;;;;;;;;5091668;28;20452;-67
2023/08/23 00:14:38;;;;;;;7.10;3.47;;;;;;;;;;5091512;28;20460;-67
2023/08/23 00:17:04;;;;;;;3.50;2.70;;;;;;;;;;5092025;28;20883;-67
2023/08/23 00:19:36;;;;;;;5.23;2.80;;;;;;;;;;5091767;28;20444;-67
2023/08/23 00:22:05;;;;;;;3.17;2.90;;;;;;;;;;5090706;28;20461;-67
2023/08/23 00:24:34;;;;;;;4.93;2.80;;;;;;;;;;5091960;28;20420;-67
2023/08/23 00:27:02;;;;;;;3.30;3.10;;;;;;;;;;5091797;28;20930;-67
2023/08/23 00:29:28;;;;;;;3.67;3.37;;;;;;;;;;5091682;28;20465;-67
2023/08/23 00:31:57;;;;;;;3.43;2.73;;;;;;;;;;5091943;28;20406;-67
2023/08/23 00:34:23;;;;;;;4.33;2.93;;;;;;;;;;5091392;28;20464;-67
2023/08/23 00:36:51;;;;;;;5.77;3.20;;;;;;;;;;5091731;28;20432;-67
2023/08/23 00:39:17;;;;;;;14.30;3.37;;;;;;;;;;5091500;28;20409;-67
2023/08/23 00:41:44;;;;;;;4.77;3.70;;;;;;;;;;5091452;28;20414;-67
2023/08/23 00:44:10;;;;;;;4.80;3.60;;;;;;;;;;5091590;28;20444;-67
2023/08/23 00:46:38;;;;;;;4.60;3.13;;;;;;;;;;5091520;28;20740;-67
2023/08/23 00:49:07;;;;;;;6.93;3.27;;;;;;;;;;5091752;28;20426;-67
2023/08/23 00:51:34;;;;;;;6.23;3.53;;;;;;;;;;5091313;28;20506;-67
2023/08/23 00:54:00;;;;;;;4.40;3.30;;;;;;;;;;5091273;28;20461;-67
2023/08/23 00:56:26;;;;;;;3.23;2.93;;;;;;;;;;5091278;28;20514;-67
2023/08/23 00:58:52;;;;;;;3.50;3.30;;;;;;;;;;5091159;28;20409;-67
2023/08/23 01:01:20;;;;;;;4.30;3.63;;;;;;;;;;5091864;28;20461;-67
2023/08/23 01:03:49;;;;;;;8.57;4.17;;;;;;;;;;5091347;28;20428;-67
2023/08/23 01:06:24;;;;;;;3.30;3.03;;;;;;;;;;5091602;28;20560;-67
2023/08/23 01:08:50;;;;;;;3.53;3.33;;;;;;;;;;5091896;28;20411;-67
2023/08/23 01:11:16;;;;;;;4.63;3.90;;;;;;;;;;5090849;28;20830;-67
2023/08/23 01:14:01;;;;;;;9.50;3.83;;;;;;;;;;5091264;28;20881;-67
2023/08/23 01:16:28;;;;;;;5.27;3.60;;;;;;;;;;5090927;28;20412;-67
2023/08/23 01:18:55;;;;;;;6.60;3.07;;;;;;;;;;5091090;28;20407;-67
2023/08/23 01:21:25;;;;;;;3.40;3.20;;;;;;;;;;5091536;28;20417;-67
2023/08/23 01:23:52;;;;;;;4.50;3.43;;;;;;;;;;5094613;28;20414;-67
2023/08/23 01:26:18;;;;;;;6.80;3.70;;;;;;;;;;5095305;28;20411;-67
2023/08/23 01:28:44;;;;;;;4.73;3.80;;;;;;;;;;5093517;28;20444;-67
2023/08/23 01:31:13;;;;;;;3.23;2.97;;;;;;;;;;5094905;28;20416;-67
2023/08/23 01:33:44;;;;;;;5.50;3.90;;;;;;;;;;5094790;28;20470;-67
2023/08/23 01:36:17;;;;;;;3.67;3.40;;;;;;;;;;5094544;28;20416;-67
2023/08/23 01:38:43;;;;;;;8.70;3.30;;;;;;;;;;5095184;28;20546;-67
2023/08/23 01:41:09;;;;;;;3.30;3.00;;;;;;;;;;5095104;28;20446;-67
2023/08/23 01:43:35;;;;;;;6.10;3.70;;;;;;;;;;5094912;28;20419;-67
2023/08/23 01:46:01;;;;;;;4.47;3.30;;;;;;;;;;5094350;28;20434;-67
2023/08/23 01:48:30;;;;;;;3.60;3.33;;;;;;;;;;5094882;28;20417;-67
2023/08/23 01:50:58;;;;;;;3.47;3.27;;;;;;;;;;5094541;28;20435;-67
2023/08/23 01:53:26;;;;;;;3.90;3.20;;;;;;;;;;5093120;28;21023;-67
2023/08/23 01:55:52;;;;;;;8.47;3.00;;;;;;;;;;5094636;28;20407;-67
2023/08/23 01:58:19;;;;;;;2.90;2.70;;;;;;;;;;5094071;28;20409;-67
2023/08/23 02:00:51;;;;;;;3.33;3.03;;;;;;;;;;5094036;28;20411;-67
2023/08/23 02:03:18;;;;;;;4.87;2.80;;;;;;;;;;5094604;28;20445;-67
2023/08/23 02:05:47;;;;;;;7.83;3.07;;;;;;;;;;5093972;28;20416;-67
2023/08/23 02:08:14;;;;;;;3.47;3.17;;;;;;;;;;5093123;28;20493;-67
2023/08/23 02:10:40;;;;;;;6.17;3.27;;;;;;;;;;5093968;28;20433;-67
2023/08/23 02:13:06;;;;;;;3.70;3.47;;;;;;;;;;5093885;28;20536;-67
2023/08/23 02:15:32;;;;;;;3.43;3.13;;;;;;;;;;5094092;28;20409;-67
2023/08/23 02:17:58;;;;;;;3.90;3.60;;;;;;;;;;5094534;28;20523;-67
2023/08/23 02:20:24;;;;;;;6.07;3.57;;;;;;;;;;5093932;28;20453;-67
2023/08/23 02:22:53;;;;;;;4.07;3.10;;;;;;;;;;5094124;28;20471;-67
2023/08/23 02:25:19;;;;;;;3.90;3.20;;;;;;;;;;5094040;28;20503;-67
2023/08/23 02:27:45;;;;;;;5.53;3.77;;;;;;;;;;5093990;28;20453;-67
2023/08/23 02:30:13;;;;;;;3.70;3.40;;;;;;;;;;5093775;28;21057;-67
2023/08/23 02:32:39;;;;;;;5.50;3.50;;;;;;;;;;5093203;28;20422;-67
2023/08/23 02:35:05;;;;;;;7.90;3.80;;;;;;;;;;5093532;28;20815;-67
2023/08/23 02:37:31;;;;;;;3.73;3.57;;;;;;;;;;5093630;28;20406;-67
2023/08/23 02:40:00;;;;;;;5.87;3.43;;;;;;;;;;5093254;28;20428;-67
2023/08/23 02:42:25;;;;;;;3.83;3.50;;;;;;;;;;5093479;28;20408;-67
2023/08/23 02:44:51;;;;;;;7.17;3.53;;;;;;;;;;5093452;28;20427;-67
2023/08/23 02:47:20;;;;;;;7.40;3.87;;;;;;;;;;5093479;28;20432;-67
2023/08/23 02:49:46;;;;;;;3.63;3.43;;;;;;;;;;5093576;28;20887;-67
2023/08/23 02:52:12;;;;;;;6.80;3.57;;;;;;;;;;5093306;28;20521;-67
2023/08/23 02:54:38;;;;;;;3.40;3.20;;;;;;;;;;5093419;28;20448;-67
2023/08/23 02:57:04;;;;;;;4.03;3.40;;;;;;;;;;5093302;28;20420;-67
2023/08/23 02:59:30;;;;;;;3.73;3.50;;;;;;;;;;5093015;28;20419;-67
2023/08/23 03:01:58;;;;;;;5.17;3.70;;;;;;;;;;5093078;28;20417;-67
2023/08/23 03:04:24;;;;;;;3.43;2.97;;;;;;;;;;5092926;28;20448;-67
2023/08/23 03:06:52;;;;;;;4.03;3.80;;;;;;;;;;5093110;28;20417;-67
2023/08/23 03:09:18;;;;;;;7.33;3.83;;;;;;;;;;5093160;28;20405;-67
2023/08/23 03:11:44;;;;;;;8.33;3.73;;;;;;;;;;5092812;28;20804;-67
2023/08/23 03:14:10;;;;;;;8.83;3.67;;;;;;;;;;5093124;28;20468;-67
2023/08/23 03:16:36;;;;;;;6.13;3.93;;;;;;;;;;5092528;28;21055;-67
2023/08/23 03:19:02;;;;;;;4.27;3.87;;;;;;;;;;5091600;28;20457;-67
2023/08/23 03:21:28;;;;;;;8.03;4.27;;;;;;;;;;5092471;28;20543;-67
2023/08/23 03:23:54;;;;;;;11.70;4.27;;;;;;;;;;5092531;28;20507;-67
2023/08/23 03:26:25;;;;;;;5.50;4.63;;;;;;;;;;5091368;28;20445;-67
2023/08/23 03:28:51;;;;;;;5.93;4.10;;;;;;;;;;5092662;28;20427;-67
2023/08/23 03:31:17;;;;;;;13.53;4.30;;;;;;;;;;5092662;28;20416;-67
2023/08/23 03:33:48;;;;;;;7.43;4.47;;;;;;;;;;5091233;28;20454;-67
2023/08/23 03:36:14;;;;;;;6.27;4.50;;;;;;;;;;5092149;28;20456;-67
2023/08/23 03:38:40;;;;;;;5.17;4.17;;;;;;;;;;5092828;28;20444;-67
2023/08/23 03:41:11;;;;;;;4.93;4.53;;;;;;;;;;5091677;28;20879;-67
2023/08/23 03:43:37;;;;;;;7.30;4.67;;;;;;;;;;5091945;28;20794;-67
2023/08/23 03:46:03;;;;;;;4.57;4.30;;;;;;;;;;5091760;28;20416;-67
2023/08/23 03:48:29;;;;;;;4.33;4.17;;;;;;;;;;5092173;28;20914;-67
2023/08/23 03:50:59;;;;;;;10.93;4.27;;;;;;;;;;5092142;28;20425;-67
2023/08/23 03:53:25;;;;;;;5.03;4.63;;;;;;;;;;5092186;28;20479;-67
2023/08/23 03:56:00;;;;;;;5.30;4.53;;;;;;;;;;5092252;28;20417;-67
2023/08/23 03:58:26;;;;;;;4.77;4.40;;;;;;;;;;5092217;28;20419;-67
2023/08/23 04:00:55;;;;;;;4.83;4.33;;;;;;;;;;5092425;28;20425;-67
2023/08/23 04:03:21;;;;;;;10.67;4.50;;;;;;;;;;5092159;28;20455;-67
2023/08/23 04:05:47;;;;;;;6.10;4.70;;;;;;;;;;5092085;28;20451;-67
2023/08/23 04:08:13;;;;;;;5.70;4.30;;;;;;;;;;5091153;28;20510;-67
2023/08/23 04:10:41;;;;;;;7.80;4.63;;;;;;;;;;5091641;28;20443;-67
2023/08/23 04:13:07;;;;;;;9.23;4.83;;;;;;;;;;5090034;28;20536;-67
2023/08/23 04:15:36;;;;;;;12.07;4.50;;;;;;;;;;5090656;28;20567;-67
2023/08/23 04:18:03;;;;;;;5.63;5.20;;;;;;;;;;5092205;28;20536;-67
2023/08/23 04:20:29;;;;;;;10.50;5.60;;;;;;;;;;5090498;28;20480;-67
2023/08/23 04:22:57;;;;;;;6.10;5.03;;;;;;;;;;5091682;28;20830;-67
2023/08/23 04:25:23;;;;;;;4.97;4.60;;;;;;;;;;5092014;28;20416;-67
2023/08/23 04:27:49;;;;;;;4.87;4.47;;;;;;;;;;5091672;28;20519;-67
2023/08/23 04:30:17;;;;;;;6.30;5.87;;;;;;;;;;5091811;28;20435;-67
2023/08/23 04:32:47;;;;;;;6.43;5.70;;;;;;;;;;5091854;28;20862;-67
2023/08/23 04:35:15;;;;;;;5.37;5.10;;;;;;;;;;5091385;28;20508;-67
2023/08/23 04:37:43;;;;;;;6.90;4.90;;;;;;;;;;5091926;28;20432;-67
2023/08/23 04:40:09;;;;;;;5.77;5.23;;;;;;;;;;5091326;28;20982;-67
2023/08/23 04:42:41;;;;;;;5.90;5.40;;;;;;;;;;5091714;28;20420;-67
2023/08/23 04:45:07;;;;;;;6.73;5.37;;;;;;;;;;5091850;28;20413;-68
2023/08/23 04:47:33;;;;;;;10.40;5.67;;;;;;;;;;5091963;28;20959;-61
2023/08/23 04:49:59;;;;;;;7.27;5.00;;;;;;;;;;5092049;28;20401;-61
2023/08/23 04:52:25;;;;;;;6.40;5.80;;;;;;;;;;5092042;28;20578;-61
2023/08/23 04:54:51;;;;;;;8.13;5.80;;;;;;;;;;5091819;28;20563;-61
2023/08/23 04:57:17;;;;;;;5.30;4.90;;;;;;;;;;5095313;28;20412;-61
2023/08/23 04:59:43;;;;;;;5.87;5.47;;;;;;;;;;5095925;28;20407;-61
2023/08/23 05:02:09;;;;;;;10.83;5.90;;;;;;;;;;5095935;28;20400;-61
2023/08/23 05:04:35;;;;;;;10.40;5.93;;;;;;;;;;5095820;28;20889;-61
2023/08/23 05:07:01;;;;;;;6.40;5.90;;;;;;;;;;5095673;28;20968;-61
2023/08/23 05:09:28;;;;;;;9.17;5.93;;;;;;;;;;5094318;28;20520;-61
2023/08/23 05:11:54;;;;;;;6.50;5.70;;;;;;;;;;5095298;28;20459;-61
2023/08/23 05:14:20;;;;;;;7.20;6.20;;;;;;;;;;5095476;28;21799;-61
2023/08/23 05:16:46;;;;;;;6.43;5.93;;;;;;;;;;5095628;28;20427;-61
2023/08/23 05:19:12;;;;;;;6.27;5.60;;;;;;;;;;5095538;28;20416;-61
2023/08/23 05:21:39;;;;;;;16.37;6.70;;;;;;;;;;5095541;28;20413;-61
2023/08/23 05:24:05;;;;;;;7.57;5.50;;;;;;;;;;5095720;28;20805;-61
2023/08/23 05:26:31;;;;;;;7.97;6.20;;;;;;;;;;5095504;28;20436;-62
2023/08/23 05:28:57;;;;;;;6.30;5.80;;;;;;;;;;5095592;28;20938;-61
2023/08/23 05:31:23;;;;;;;11.20;6.10;;;;;;;;;;5095368;28;20427;-61
2023/08/23 05:33:49;;;;;;;6.67;5.97;;;;;;;;;;5095703;28;20460;-62
2023/08/23 05:36:17;;;;;;;18.33;6.47;;;;;;;;;;5096107;28;20575;-61
2023/08/23 05:38:43;;;;;;;6.53;5.93;;;;;;;;;;5094140;28;20452;-61
2023/08/23 05:41:09;;;;;;;7.60;6.40;;;;;;;;;;5095489;28;20409;-61
2023/08/23 05:43:35;;;;;;;11.57;6.27;;;;;;;;;;5093851;28;20437;-61
2023/08/23 05:46:03;;;;;;;7.00;6.40;;;;;;;;;;5095107;28;20472;-61
2023/08/23 05:48:29;;;;;;;11.33;6.67;;;;;;;;;;5095453;28;20421;-61
2023/08/23 05:50:57;;;;;;;7.70;6.00;;;;;;;;;;5093790;28;20449;-61
2023/08/23 05:53:25;;;;;;;7.90;6.30;;;;;;;;;;5094991;28;20501;-61
2023/08/23 05:55:51;;;;;;;7.07;6.43;;;;;;;;;;5094744;28;20440;-62
2023/08/23 05:58:18;;;;;;;14.53;7.73;;;;;;;;;;5094838;28;20413;-61
2023/08/23 06:00:44;;;;;;;8.63;7.53;;;;;;;;;;5093606;28;20481;-61
2023/08/23 06:03:10;;;;;;;7.57;6.97;;;;;;;;;;5095134;28;20439;-61
2023/08/23 06:05:39;;;;;;;9.60;6.70;;;;;;;;;;5094557;28;20440;-61
2023/08/23 06:08:07;;;;;;;8.03;6.13;;;;;;;;;;5094273;28;20763;-61
2023/08/23 06:10:36;;;;;;;15.17;6.70;;;;;;;;;;5094559;28;20409;-62
2023/08/23 06:13:02;;;;;;;8.53;7.20;;;;;;;;;;5094572;28;20434;-61
2023/08/23 06:15:28;;;;;;;10.47;7.60;;;;;;;;;;5094452;28;20473;-61
2023/08/23 06:17:55;;;;;;;9.20;7.80;;;;;;;;;;5094342;28;20484;-61
2023/08/23 06:20:21;;;;;;;23.43;17.67;;;;;;;;;;5094218;28;20413;-62
2023/08/23 06:22:47;;;;;;;81.10;50.67;;;;;;;;;;5094245;28;20420;-62
2023/08/23 06:25:15;;;;;;;41.67;26.30;;;;;;;;;;5094324;28;20794;-62
2023/08/23 06:27:44;;;;;;;128.17;75.40;;;;;;;;;;5091468;28;20515;-62
2023/08/23 06:30:10;;;;;;;20.40;14.23;;;;;;;;;;5093226;28;20443;-62
2023/08/23 06:32:36;;;;;;;9.90;7.70;;;;;;;;;;5092927;28;20419;-62
2023/08/23 06:35:02;;;;;;;28.43;19.90;;;;;;;;;;5092803;28;20933;-63
2023/08/23 06:37:30;;;;;;;11.40;9.13;;;;;;;;;;5093301;28;20921;-62
2023/08/23 06:39:56;;;;;;;15.10;8.17;;;;;;;;;;5092665;28;20494;-62
2023/08/23 06:42:22;;;;;;;9.90;8.30;;;;;;;;;;5093003;28;20412;-61
2023/08/23 06:44:50;;;;;;;7.07;6.47;;;;;;;;;;5093176;28;20433;-61
2023/08/23 06:47:20;;;;;;;8.57;7.47;;;;;;;;;;5093238;28;20410;-62
2023/08/23 06:49:47;;;;;;;7.80;6.97;;;;;;;;;;5093544;28;20915;-62
2023/08/23 06:52:12;;;;;;;16.63;8.37;;;;;;;;;;5093582;28;20437;-62
2023/08/23 06:54:38;;;;;;;18.87;8.00;;;;;;;;;;5093767;28;20464;-63
2023/08/23 06:57:05;;;;;;;9.80;7.60;;;;;;;;;;5093723;28;20433;-62
2023/08/23 06:59:33;;;;;;;11.43;7.77;;;;;;;;;;5093871;28;20409;-63
2023/08/23 07:02:01;;;;;;;11.60;7.03;;;;;;;;;;5093921;28;20764;-63
2023/08/23 07:04:27;;;;;;;8.03;7.33;;;;;;;;;;5092370;28;20849;-62
2023/08/23 07:06:53;;;;;;;7.50;6.80;;;;;;;;;;5093532;28;20496;-63
2023/08/23 07:09:22;;;;;;;8.67;7.77;;;;;;;;;;5093451;28;20826;-62
2023/08/23 07:11:50;;;;;;;17.87;8.23;;;;;;;;;;5092146;28;20590;-62
2023/08/23 07:14:19;;;;;;;9.93;7.17;;;;;;;;;;5093442;28;20470;-62
2023/08/23 07:16:45;;;;;;;16.93;11.30;;;;;;;;;;5092941;28;20431;-62
2023/08/23 07:19:12;;;;;;;27.03;17.47;;;;;;;;;;5091919;28;20429;-62
2023/08/23 07:21:38;;;;;;;16.10;10.57;;;;;;;;;;5093601;28;20900;-63
2023/08/23 07:24:06;;;;;;;205.97;118.90;;;;;;;;;;5093410;28;20421;-62
2023/08/23 07:26:33;;;;;;;10.50;7.70;;;;;;;;;;5091969;28;20795;-62
2023/08/23 07:28:59;;;;;;;11.40;7.93;;;;;;;;;;5092886;28;20518;-62
2023/08/23 07:31:25;;;;;;;9.83;7.37;;;;;;;;;;5092840;28;20484;-62
2023/08/23 07:33:54;;;;;;;7.60;6.87;;;;;;;;;;5092646;28;20463;-62
2023/08/23 07:36:19;;;;;;;10.30;8.23;;;;;;;;;;5092404;28;20565;-62
2023/08/23 07:38:45;;;;;;;7.20;6.53;;;;;;;;;;5092477;28;20428;-62
2023/08/23 07:41:16;;;;;;;7.53;5.93;;;;;;;;;;5091965;28;20436;-62
2023/08/23 07:43:42;;;;;;;9.07;8.20;;;;;;;;;;5093013;28;20428;-62
2023/08/23 07:46:10;;;;;;;14.03;12.53;;;;;;;;;;5090591;28;20471;-63
2023/08/23 07:48:38;;;;;;;9.57;6.60;;;;;;;;;;5092625;28;20438;-62
2023/08/23 07:51:07;;;;;;;7.20;6.60;;;;;;;;;;5092251;28;20558;-63
2023/08/23 07:53:33;;;;;;;7.50;6.77;;;;;;;;;;5092267;28;20951;-63
2023/08/23 07:55:59;;;;;;;7.50;6.30;;;;;;;;;;5092771;28;20433;-63
2023/08/23 07:58:27;;;;;;;13.83;6.23;;;;;;;;;;5092648;28;20467;-63
2023/08/23 08:00:53;;;;;;;7.37;6.63;;;;;;;;;;5092406;28;20756;-63
2023/08/23 08:03:20;;;;;;;10.13;6.77;;;;;;;;;;5091414;28;20460;-63
2023/08/23 08:05:46;;;;;;;6.90;5.70;;;;;;;;;;5093200;28;20830;-63
2023/08/23 08:08:12;;;;;;;9.00;6.90;;;;;;;;;;5092882;28;20729;-62
2023/08/23 08:10:38;;;;;;;7.60;6.50;;;;;;;;;;5091279;28;20463;-63
2023/08/23 08:13:05;;;;;;;6.87;5.83;;;;;;;;;;5092628;28;20424;-63
2023/08/23 08:15:31;;;;;;;12.10;7.90;;;;;;;;;;5091500;28;20472;-63
2023/08/23 08:17:58;;;;;;;11.80;6.27;;;;;;;;;;5092854;28;20405;-63
2023/08/23 08:20:24;;;;;;;13.97;6.83;;;;;;;;;;5092851;28;20476;-63
2023/08/23 08:22:53;;;;;;;10.23;5.80;;;;;;;;;;5092801;28;20406;-63
2023/08/23 08:25:19;;;;;;;11.80;6.83;;;;;;;;;;5092636;28;20422;-64
2023/08/23 08:27:45;;;;;;;7.60;6.80;;;;;;;;;;5092881;28;20420;-64
2023/08/23 08:30:11;;;;;;;12.10;6.80;;;;;;;;;;5091408;28;20417;-64
2023/08/23 08:32:37;;;;;;;8.57;6.13;;;;;;;;;;5095603;28;20498;-64
2023/08/23 08:35:04;;;;;;;11.37;6.10;;;;;;;;;;5096716;28;20460;-64
2023/08/23 08:37:30;;;;;;;14.63;6.90;;;;;;;;;;5097150;28;20434;-64
2023/08/23 08:39:56;;;;;;;7.00;6.40;;;;;;;;;;5096681;28;20881;-63
2023/08/23 08:42:22;;;;;;;9.87;6.63;;;;;;;;;;5096526;28;20420;-64
2023/08/23 08:44:50;;;;;;;6.40;5.90;;;;;;;;;;5096697;28;20433;-63
2023/08/23 08:47:16;;;;;;;7.00;5.73;;;;;;;;;;5095638;28;20448;-63
2023/08/23 08:49:44;;;;;;;7.07;6.23;;;;;;;;;;5096723;28;20447;-64
2023/08/23 08:52:13;;;;;;;6.93;6.30;;;;;;;;;;5096547;28;20409;-63
2023/08/23 08:54:40;;;;;;;6.63;5.87;;;;;;;;;;5096495;28;20469;-63
2023/08/23 08:57:06;;;;;;;7.37;6.13;;;;;;;;;;5096702;28;20413;-63
2023/08/23 08:59:33;;;;;;;9.00;5.83;;;;;;;;;;5096894;28;20433;-63
2023/08/23 09:01:59;;;;;;;7.90;5.43;;;;;;;;;;5096465;28;20503;-63
2023/08/23 09:04:25;;;;;;;8.70;6.40;;;;;;;;;;5096203;28;20471;-65
2023/08/23 09:06:51;;;;;;;9.77;8.77;;;;;;;;;;5096522;28;20480;-64
2023/08/23 09:09:17;;;;;;;11.60;10.47;;;;;;;;;;5096158;28;20433;-64
2023/08/23 09:11:46;;;;;;;54.63;35.20;;;;;;;;;;5096079;28;20429;-64
2023/08/23 09:14:15;;;;;;;7.97;7.27;;;;;;;;;;5096161;28;20476;-64
2023/08/23 09:16:41;;;;;;;9.83;8.87;;;;;;;;;;5096138;28;20435;-64
2023/08/23 09:19:11;;;;;;;10.73;5.70;;;;;;;;;;5095987;28;20486;-64
2023/08/23 09:21:41;;;;;;;9.27;5.43;;;;;;;;;;5095861;28;20408;-64
2023/08/23 09:24:10;;;;;;;5.27;4.77;;;;;;;;;;5095827;28;20470;-64
2023/08/23 09:26:36;;;;;;;9.40;5.10;;;;;;;;;;5095731;28;20405;-64
2023/08/23 09:29:03;;;;;;;6.53;4.93;;;;;;;;;;5095768;28;20437;-64
2023/08/23 09:31:29;;;;;;;7.00;4.73;;;;;;;;;;5095628;28;20428;-63
2023/08/23 09:33:55;;;;;;;5.37;5.03;;;;;;;;;;5095623;28;20465;-63
2023/08/23 09:36:42;;;;;;;5.33;4.77;;;;;;;;;;5095540;28;20899;-63
2023/08/23 09:39:14;;;;;;;8.37;5.53;;;;;;;;;;5094275;28;20523;-63
2023/08/23 09:41:43;;;;;;;4.60;4.40;;;;;;;;;;5095134;28;20412;-63
2023/08/23 09:44:11;;;;;;;5.73;5.03;;;;;;;;;;5094912;28;20425;-63
2023/08/23 09:46:40;;;;;;;7.00;5.10;;;;;;;;;;5095468;28;20416;-63
2023/08/23 09:49:07;;;;;;;5.80;4.60;;;;;;;;;;5094922;28;20987;-63
2023/08/23 09:51:37;;;;;;;8.10;5.17;;;;;;;;;;5094642;28;20425;-63
2023/08/23 09:54:13;;;;;;;5.37;4.97;;;;;;;;;;5094874;28;20449;-63
2023/08/23 09:56:44;;;;;;;9.60;4.20;;;;;;;;;;5095130;28;21016;-63
2023/08/23 09:59:11;;;;;;;6.07;4.27;;;;;;;;;;5094828;28;20862;-63
2023/08/23 10:01:38;;;;;;;6.00;4.60;;;;;;;;;;5094966;28;20832;-64
2023/08/23 10:04:04;;;;;;;14.93;10.23;;;;;;;;;;5094886;28;20502;-63
2023/08/23 10:06:33;;;;;;;8.53;6.53;;;;;;;;;;5095099;28;20745;-63
2023/08/23 10:08:59;;;;;;;27.70;14.20;;;;;;;;;;5093599;28;20425;-63
2023/08/23 10:11:29;;;;;;;5.83;5.33;;;;;;;;;;5094931;28;20405;-63
2023/08/23 10:13:55;;;;;;;58.93;37.60;;;;;;;;;;5094875;28;20457;-63
2023/08/23 10:16:22;;;;;;;96.47;67.63;;;;;;;;;;5094748;28;20490;-63
2023/08/23 10:18:49;;;;;;;5.93;4.67;;;;;;;;;;5094771;28;20402;-63
2023/08/23 10:21:16;;;;;;;5.50;4.27;;;;;;;;;;5094675;28;20408;-64
2023/08/23 10:23:42;;;;;;;4.47;4.17;;;;;;;;;;5094774;28;20421;-64
2023/08/23 10:26:17;;;;;;;5.07;4.47;;;;;;;;;;5094684;28;20448;-64
2023/08/23 10:28:50;;;;;;;5.07;4.70;;;;;;;;;;5094630;28;20516;-63
2023/08/23 10:31:21;;;;;;;6.10;3.93;;;;;;;;;;5093326;28;20512;-63
2023/08/23 10:33:54;;;;;;;5.97;3.87;;;;;;;;;;5094422;28;20463;-64
2023/08/23 10:36:27;;;;;;;4.63;3.50;;;;;;;;;;5094475;28;20438;-64
2023/08/23 10:38:54;;;;;;;4.30;4.03;;;;;;;;;;5094247;28;20405;-63
2023/08/23 10:41:24;;;;;;;18.23;4.97;;;;;;;;;;5094227;28;20409;-63
2023/08/23 10:43:51;;;;;;;3.90;3.60;;;;;;;;;;5094071;28;20439;-63
2023/08/23 10:46:21;;;;;;;4.17;3.87;;;;;;;;;;5094294;28;20398;-63
2023/08/23 10:48:47;;;;;;;6.10;5.60;;;;;;;;;;5094184;28;20421;-63
2023/08/23 10:51:13;;;;;;;4.40;4.10;;;;;;;;;;5094031;28;20432;-63
2023/08/23 10:53:40;;;;;;;4.70;4.30;;;;;;;;;;5093740;28;20456;-63
2023/08/23 10:56:07;;;;;;;7.97;4.17;;;;;;;;;;5092785;28;20441;-63
2023/08/23 10:58:35;;;;;;;3.83;3.53;;;;;;;;;;5094072;28;20412;-64
2023/08/23 11:01:02;;;;;;;3.90;3.60;;;;;;;;;;5093646;28;20425;-64
2023/08/23 11:03:34;;;;;;;3.87;3.67;;;;;;;;;;5092808;28;20410;-64
2023/08/23 11:06:01;;;;;;;4.13;3.70;;;;;;;;;;5093832;28;20429;-63
2023/08/23 11:08:27;;;;;;;8.10;4.13;;;;;;;;;;5094087;28;20743;-63
2023/08/23 11:10:53;;;;;;;3.80;3.60;;;;;;;;;;5093653;28;20459;-63
2023/08/23 11:13:19;;;;;;;4.43;3.67;;;;;;;;;;5093565;28;20441;-63
2023/08/23 11:15:47;;;;;;;4.57;4.17;;;;;;;;;;5093793;28;20456;-63
2023/08/23 11:18:13;;;;;;;4.50;4.10;;;;;;;;;;5093679;28;20425;-64
2023/08/23 11:20:42;;;;;;;6.73;4.07;;;;;;;;;;5093608;28;20421;-63
2023/08/23 11:23:11;;;;;;;3.97;3.60;;;;;;;;;;5093750;28;20420;-64
2023/08/23 11:25:37;;;;;;;3.70;3.30;;;;;;;;;;5093519;28;20519;-64
2023/08/23 11:28:05;;;;;;;5.40;3.20;;;;;;;;;;5093362;28;20500;-63
2023/08/23 11:30:33;;;;;;;9.73;3.73;;;;;;;;;;5093514;28;20460;-64
2023/08/23 11:33:03;;;;;;;4.00;3.53;;;;;;;;;;5093640;28;20444;-64
2023/08/23 11:35:31;;;;;;;3.33;3.20;;;;;;;;;;5093301;28;20472;-64
2023/08/23 11:37:57;;;;;;;7.10;3.77;;;;;;;;;;5093246;28;20428;-64
2023/08/23 11:40:24;;;;;;;4.40;4.10;;;;;;;;;;5093210;28;20932;-64
2023/08/23 11:42:50;;;;;;;4.23;3.83;;;;;;;;;;5093115;28;20912;-64
2023/08/23 11:45:16;;;;;;;7.43;3.70;;;;;;;;;;5093085;28;20433;-64
2023/08/23 11:47:45;;;;;;;6.33;4.50;;;;;;;;;;5093077;28;20413;-64
2023/08/23 11:50:11;;;;;;;5.13;3.50;;;;;;;;;;5092966;28;20469;-64
2023/08/23 11:52:37;;;;;;;4.40;3.40;;;;;;;;;;5093017;28;20467;-64
2023/08/23 11:55:03;;;;;;;5.10;3.67;;;;;;;;;;5092931;28;20460;-65
2023/08/23 11:57:35;;;;;;;6.90;3.40;;;;;;;;;;5093246;28;20401;-64
2023/08/23 12:00:01;;;;;;;7.97;3.97;;;;;;;;;;5092938;28;20428;-64
2023/08/23 12:02:30;;;;;;;4.37;3.73;;;;;;;;;;5093094;28;20406;-64
2023/08/23 12:04:56;;;;;;;7.47;4.00;;;;;;;;;;5092642;28;20422;-64
2023/08/23 12:07:22;;;;;;;4.70;3.40;;;;;;;;;;5092732;28;20811;-64
2023/08/23 12:09:48;;;;;;;3.90;3.60;;;;;;;;;;5093269;28;20500;-63
2023/08/23 12:12:14;;;;;;;3.80;3.50;;;;;;;;;;5092940;28;20440;-64
2023/08/23 12:14:40;;;;;;;5.00;4.53;;;;;;;;;;5092686;28;20464;-64
2023/08/23 12:17:08;;;;;;;5.23;4.60;;;;;;;;;;5092761;28;20918;-64
2023/08/23 12:19:36;;;;;;;3.60;3.50;;;;;;;;;;5092799;28;20410;-64
2023/08/23 12:22:06;;;;;;;4.73;3.93;;;;;;;;;;5092621;28;20892;-64
2023/08/23 12:24:32;;;;;;;4.10;3.80;;;;;;;;;;5092741;28;20583;-64
2023/08/23 12:26:59;;;;;;;4.03;3.80;;;;;;;;;;5093107;28;20493;-63
2023/08/23 12:29:26;;;;;;;6.83;4.30;;;;;;;;;;5092958;28;20266;-63
2023/08/23 12:31:52;;;;;;;4.07;3.73;;;;;;;;;;5092491;28;20433;-63
2023/08/23 12:34:18;;;;;;;6.50;3.97;;;;;;;;;;5092486;28;20468;-64
2023/08/23 12:36:46;;;;;;;3.80;3.60;;;;;;;;;;5092585;28;20195;-63
2023/08/23 12:39:12;;;;;;;5.40;4.37;;;;;;;;;;5092472;28;20941;-63
2023/08/23 12:41:38;;;;;;;4.33;3.93;;;;;;;;;;5092714;28;20429;-63
2023/08/23 12:44:07;;;;;;;5.30;4.17;;;;;;;;;;5091064;28;20194;-64
2023/08/23 12:46:33;;;;;;;5.60;4.30;;;;;;;;;;5091894;28;20543;-64
2023/08/23 12:48:59;;;;;;;4.47;4.10;;;;;;;;;;5092317;28;20527;-63
2023/08/23 12:51:25;;;;;;;4.10;3.90;;;;;;;;;;5092323;28;20179;-63
2023/08/23 12:53:51;;;;;;;7.27;6.60;;;;;;;;;;5092470;28;20456;-63
2023/08/23 12:56:17;;;;;;;4.80;4.33;;;;;;;;;;5092171;28;20425;-63
2023/08/23 12:58:43;;;;;;;4.03;3.60;;;;;;;;;;5091032;28;20543;-63
2023/08/23 13:01:09;;;;;;;4.63;3.60;;;;;;;;;;5092157;28;20199;-63
2023/08/23 13:03:35;;;;;;;4.87;3.80;;;;;;;;;;5092396;28;20428;-63
2023/08/23 13:06:01;;;;;;;4.10;3.67;;;;;;;;;;5092182;28;20831;-63
2023/08/23 13:08:27;;;;;;;5.03;3.40;;;;;;;;;;5092519;28;20466;-63
2023/08/23 13:10:55;;;;;;;4.40;4.10;;;;;;;;;;5091230;28;20209;-63
2023/08/23 13:13:24;;;;;;;4.00;3.60;;;;;;;;;;5092004;28;20236;-64
2023/08/23 13:15:50;;;;;;;4.50;4.10;;;;;;;;;;5092262;28;20437;-64
2023/08/23 13:18:16;;;;;;;4.37;4.10;;;;;;;;;;5095411;28;20492;-63
2023/08/23 13:20:45;;;;;;;8.30;3.83;;;;;;;;;;5095942;28;20405;-63
2023/08/23 13:23:12;;;;;;;3.60;3.40;;;;;;;;;;5096143;28;20385;-63
2023/08/23 13:25:38;;;;;;;4.80;3.63;;;;;;;;;;5095810;28;20488;-63
2023/08/23 13:28:04;;;;;;;4.97;3.77;;;;;;;;;;5095762;28;20444;-64
2023/08/23 13:30:30;;;;;;;4.33;3.43;;;;;;;;;;5095778;28;20425;-63
2023/08/23 13:33:01;;;;;;;4.13;3.70;;;;;;;;;;5095570;28;20776;-63
2023/08/23 13:35:27;;;;;;;3.33;3.13;;;;;;;;;;5095993;28;20472;-64
2023/08/23 13:37:55;;;;;;;3.80;3.60;;;;;;;;;;5095732;28;20409;-64
2023/08/23 13:40:23;;;;;;;6.63;3.33;;;;;;;;;;5095603;28;20241;-64
2023/08/23 13:42:49;;;;;;;5.67;3.90;;;;;;;;;;5095502;28;20409;-64
2023/08/23 13:45:15;;;;;;;3.90;3.60;;;;;;;;;;5095423;28;20474;-64
2023/08/23 13:47:41;;;;;;;4.03;3.90;;;;;;;;;;5095625;28;20756;-64
2023/08/23 13:50:09;;;;;;;4.43;3.97;;;;;;;;;;5095683;28;20187;-64
2023/08/23 13:52:35;;;;;;;3.23;3.10;;;;;;;;;;5095496;28;20178;-64
2023/08/23 13:55:01;;;;;;;4.63;3.37;;;;;;;;;;5095307;28;20936;-64
2023/08/23 13:57:28;;;;;;;3.47;3.37;;;;;;;;;;5095168;28;20467;-64
2023/08/23 13:59:54;;;;;;;5.50;3.17;;;;;;;;;;5095220;28;20960;-64
2023/08/23 14:02:21;;;;;;;5.43;3.67;;;;;;;;;;5094985;28;20504;-64
2023/08/23 14:04:47;;;;;;;7.60;3.53;;;;;;;;;;5095280;28;20400;-64
2023/08/23 14:07:15;;;;;;;3.73;2.90;;;;;;;;;;5095063;28;20801;-63
2023/08/23 14:09:41;;;;;;;3.67;3.57;;;;;;;;;;5095444;28;20270;-63
2023/08/23 14:12:09;;;;;;;9.63;2.97;;;;;;;;;;5094928;28;20440;-63
2023/08/23 14:14:35;;;;;;;3.30;3.13;;;;;;;;;;5094812;28;20461;-63
2023/08/23 14:17:01;;;;;;;9.97;3.80;;;;;;;;;;5095027;28;20976;-63
2023/08/23 14:19:30;;;;;;;6.43;3.70;;;;;;;;;;5094701;28;20193;-63
2023/08/23 14:21:58;;;;;;;4.67;3.37;;;;;;;;;;5094846;28;20438;-63
2023/08/23 14:24:24;;;;;;;3.27;2.97;;;;;;;;;;5094788;28;20413;-63
2023/08/23 14:26:50;;;;;;;3.43;3.23;;;;;;;;;;5094451;28;20422;-63
2023/08/23 14:29:16;;;;;;;3.30;3.20;;;;;;;;;;5093962;28;20780;-63
2023/08/23 14:31:42;;;;;;;3.57;3.27;;;;;;;;;;5094753;28;20265;-63
2023/08/23 14:34:08;;;;;;;3.50;3.20;;;;;;;;;;5093329;28;20199;-64
2023/08/23 14:36:34;;;;;;;3.37;3.20;;;;;;;;;;5094517;28;20428;-64
2023/08/23 14:39:01;;;;;;;3.50;3.30;;;;;;;;;;5094621;28;20393;-64
2023/08/23 14:41:27;;;;;;;4.67;3.00;;;;;;;;;;5094416;28;20406;-64